METAR Data
IDs: Format: Raw Decoded Include TAF

Data at: 0943 UTC 13 Aug 2022

LHPR 130915Z AUTO 28005KT 210V340 CAVOK 25/13 Q1013 NOSIG